sensor_id;sensor_type;location;lat;lon;timestamp;temperature;humidity
4520;DHT22;2272;49.226;8.108;2023-04-30T00:00:38;10.80;99.90
4520;DHT22;2272;49.226;8.108;2023-04-30T00:03:05;10.80;99.90
4520;DHT22;2272;49.226;8.108;2023-04-30T00:05:32;10.80;99.90
4520;DHT22;2272;49.226;8.108;2023-04-30T00:07:59;10.70;99.90
4520;DHT22;2272;49.226;8.108;2023-04-30T00:10:25;10.70;99.90
4520;DHT22;2272;49.226;8.108;2023-04-30T00:12:52;10.70;99.90
4520;DHT22;2272;49.226;8.108;2023-04-30T00:15:19;10.70;99.90
4520;DHT22;2272;49.226;8.108;2023-04-30T00:17:46;10.70;99.90
4520;DHT22;2272;49.226;8.108;2023-04-30T00:20:14;10.70;99.90
4520;DHT22;2272;49.226;8.108;2023-04-30T00:22:40;10.70;99.90
4520;DHT22;2272;49.226;8.108;2023-04-30T00:25:07;10.70;99.90
4520;DHT22;2272;49.226;8.108;2023-04-30T00:27:34;10.70;99.90
4520;DHT22;2272;49.226;8.108;2023-04-30T00:30:01;10.70;99.90
4520;DHT22;2272;49.226;8.108;2023-04-30T00:32:28;10.70;99.90
4520;DHT22;2272;49.226;8.108;2023-04-30T00:34:55;10.70;99.90
4520;DHT22;2272;49.226;8.108;2023-04-30T00:37:23;10.70;99.90
4520;DHT22;2272;49.226;8.108;2023-04-30T00:39:49;10.70;99.90
4520;DHT22;2272;49.226;8.108;2023-04-30T00:42:16;10.70;99.90
4520;DHT22;2272;49.226;8.108;2023-04-30T00:44:43;10.70;99.90
4520;DHT22;2272;49.226;8.108;2023-04-30T00:47:09;10.70;99.90
4520;DHT22;2272;49.226;8.108;2023-04-30T00:49:36;10.70;99.90
4520;DHT22;2272;49.226;8.108;2023-04-30T00:52:03;10.70;99.90
4520;DHT22;2272;49.226;8.108;2023-04-30T00:54:31;10.60;99.90
4520;DHT22;2272;49.226;8.108;2023-04-30T00:56:58;10.70;99.90
4520;DHT22;2272;49.226;8.108;2023-04-30T00:59:26;10.70;99.90
4520;DHT22;2272;49.226;8.108;2023-04-30T01:01:54;10.60;99.90
4520;DHT22;2272;49.226;8.108;2023-04-30T01:04:21;10.60;99.90
4520;DHT22;2272;49.226;8.108;2023-04-30T01:06:48;10.60;99.90
4520;DHT22;2272;49.226;8.108;2023-04-30T01:09:14;10.60;99.90
4520;DHT22;2272;49.226;8.108;2023-04-30T01:12:02;10.60;99.90
4520;DHT22;2272;49.226;8.108;2023-04-30T01:14:38;10.50;99.90
4520;DHT22;2272;49.226;8.108;2023-04-30T01:17:12;10.50;99.90
4520;DHT22;2272;49.226;8.108;2023-04-30T01:19:43;10.50;99.90
4520;DHT22;2272;49.226;8.108;2023-04-30T01:22:20;10.50;99.90
4520;DHT22;2272;49.226;8.108;2023-04-30T01:25:05;10.50;99.90
4520;DHT22;2272;49.226;8.108;2023-04-30T01:30:37;10.50;99.90
4520;DHT22;2272;49.226;8.108;2023-04-30T01:33:05;10.50;99.90
4520;DHT22;2272;49.226;8.108;2023-04-30T01:35:56;10.50;99.90
4520;DHT22;2272;49.226;8.108;2023-04-30T01:38:34;10.50;99.90
4520;DHT22;2272;49.226;8.108;2023-04-30T01:41:09;10.50;99.90
4520;DHT22;2272;49.226;8.108;2023-04-30T01:43:47;10.50;99.90
4520;DHT22;2272;49.226;8.108;2023-04-30T01:46:21;10.50;99.90
4520;DHT22;2272;49.226;8.108;2023-04-30T01:48:53;10.50;99.90
4520;DHT22;2272;49.226;8.108;2023-04-30T01:51:29;10.50;99.90
4520;DHT22;2272;49.226;8.108;2023-04-30T01:54:05;10.40;99.90
4520;DHT22;2272;49.226;8.108;2023-04-30T01:56:38;10.40;99.90
4520;DHT22;2272;49.226;8.108;2023-04-30T01:59:08;10.40;99.90
4520;DHT22;2272;49.226;8.108;2023-04-30T02:01:36;10.40;99.90
4520;DHT22;2272;49.226;8.108;2023-04-30T02:04:03;10.40;99.90
4520;DHT22;2272;49.226;8.108;2023-04-30T02:06:30;10.40;99.90
4520;DHT22;2272;49.226;8.108;2023-04-30T02:08:57;10.40;99.90
4520;DHT22;2272;49.226;8.108;2023-04-30T02:11:27;10.30;99.90
4520;DHT22;2272;49.226;8.108;2023-04-30T02:13:54;10.30;99.90
4520;DHT22;2272;49.226;8.108;2023-04-30T02:16:22;10.30;99.90
4520;DHT22;2272;49.226;8.108;2023-04-30T02:18:49;10.30;99.90
4520;DHT22;2272;49.226;8.108;2023-04-30T02:21:16;10.30;99.90
4520;DHT22;2272;49.226;8.108;2023-04-30T02:23:42;10.30;99.90
4520;DHT22;2272;49.226;8.108;2023-04-30T02:26:09;10.30;99.90
4520;DHT22;2272;49.226;8.108;2023-04-30T02:28:36;10.20;99.90
4520;DHT22;2272;49.226;8.108;2023-04-30T02:31:03;10.20;99.90
4520;DHT22;2272;49.226;8.108;2023-04-30T02:33:31;10.20;99.90
4520;DHT22;2272;49.226;8.108;2023-04-30T02:35:58;10.20;99.90
4520;DHT22;2272;49.226;8.108;2023-04-30T02:38:25;10.20;99.90
4520;DHT22;2272;49.226;8.108;2023-04-30T02:40:52;10.20;99.90
4520;DHT22;2272;49.226;8.108;2023-04-30T02:43:18;10.20;99.90
4520;DHT22;2272;49.226;8.108;2023-04-30T02:45:45;10.10;99.90
4520;DHT22;2272;49.226;8.108;2023-04-30T02:48:12;10.10;99.90
4520;DHT22;2272;49.226;8.108;2023-04-30T02:50:40;10.10;99.90
4520;DHT22;2272;49.226;8.108;2023-04-30T02:53:07;10.10;99.90
4520;DHT22;2272;49.226;8.108;2023-04-30T02:55:34;10.10;99.90
4520;DHT22;2272;49.226;8.108;2023-04-30T02:58:00;10.10;99.90
4520;DHT22;2272;49.226;8.108;2023-04-30T03:00:27;10.10;99.90
4520;DHT22;2272;49.226;8.108;2023-04-30T03:02:54;10.20;99.90
4520;DHT22;2272;49.226;8.108;2023-04-30T03:05:21;10.10;99.90
4520;DHT22;2272;49.226;8.108;2023-04-30T03:07:49;10.10;99.90
4520;DHT22;2272;49.226;8.108;2023-04-30T03:10:16;10.10;99.90
4520;DHT22;2272;49.226;8.108;2023-04-30T03:12:43;10.10;99.90
4520;DHT22;2272;49.226;8.108;2023-04-30T03:15:10;10.10;99.90
4520;DHT22;2272;49.226;8.108;2023-04-30T03:17:37;10.10;99.90
4520;DHT22;2272;49.226;8.108;2023-04-30T03:20:04;10.10;99.90
4520;DHT22;2272;49.226;8.108;2023-04-30T03:22:31;10.10;99.90
4520;DHT22;2272;49.226;8.108;2023-04-30T03:24:59;10.10;99.90
4520;DHT22;2272;49.226;8.108;2023-04-30T03:27:26;10.10;99.90
4520;DHT22;2272;49.226;8.108;2023-04-30T03:29:53;10.10;99.90
4520;DHT22;2272;49.226;8.108;2023-04-30T03:32:19;10.00;99.90
4520;DHT22;2272;49.226;8.108;2023-04-30T03:34:46;10.00;99.90
4520;DHT22;2272;49.226;8.108;2023-04-30T03:37:13;10.00;99.90
4520;DHT22;2272;49.226;8.108;2023-04-30T03:39:39;10.00;99.90
4520;DHT22;2272;49.226;8.108;2023-04-30T03:42:07;10.00;99.90
4520;DHT22;2272;49.226;8.108;2023-04-30T03:44:34;10.00;99.90
4520;DHT22;2272;49.226;8.108;2023-04-30T03:47:02;10.00;99.90
4520;DHT22;2272;49.226;8.108;2023-04-30T03:49:28;10.00;99.90
4520;DHT22;2272;49.226;8.108;2023-04-30T03:51:55;10.00;99.90
4520;DHT22;2272;49.226;8.108;2023-04-30T03:54:22;10.00;99.90
4520;DHT22;2272;49.226;8.108;2023-04-30T03:56:49;10.00;99.90
4520;DHT22;2272;49.226;8.108;2023-04-30T03:59:17;10.00;99.90
4520;DHT22;2272;49.226;8.108;2023-04-30T04:01:44;10.00;99.90
4520;DHT22;2272;49.226;8.108;2023-04-30T04:04:10;9.90;99.90
4520;DHT22;2272;49.226;8.108;2023-04-30T04:06:37;9.90;99.90
4520;DHT22;2272;49.226;8.108;2023-04-30T04:09:04;9.90;99.90
4520;DHT22;2272;49.226;8.108;2023-04-30T04:11:31;9.90;99.90
4520;DHT22;2272;49.226;8.108;2023-04-30T04:13:58;9.90;99.90
4520;DHT22;2272;49.226;8.108;2023-04-30T04:16:26;9.90;99.90
4520;DHT22;2272;49.226;8.108;2023-04-30T04:18:53;9.90;99.90
4520;DHT22;2272;49.226;8.108;2023-04-30T04:21:20;9.90;99.90
4520;DHT22;2272;49.226;8.108;2023-04-30T04:23:46;10.00;99.90
4520;DHT22;2272;49.226;8.108;2023-04-30T04:26:13;9.90;99.90
4520;DHT22;2272;49.226;8.108;2023-04-30T04:28:40;9.90;99.90
4520;DHT22;2272;49.226;8.108;2023-04-30T04:31:07;9.90;99.90
4520;DHT22;2272;49.226;8.108;2023-04-30T04:33:35;10.00;99.90
4520;DHT22;2272;49.226;8.108;2023-04-30T04:36:03;10.00;99.90
4520;DHT22;2272;49.226;8.108;2023-04-30T04:38:30;10.00;99.90
4520;DHT22;2272;49.226;8.108;2023-04-30T04:40:56;10.00;99.90
4520;DHT22;2272;49.226;8.108;2023-04-30T04:43:23;10.00;99.90
4520;DHT22;2272;49.226;8.108;2023-04-30T04:45:50;10.00;99.90
4520;DHT22;2272;49.226;8.108;2023-04-30T04:48:17;10.00;99.90
4520;DHT22;2272;49.226;8.108;2023-04-30T04:50:45;10.10;99.90
4520;DHT22;2272;49.226;8.108;2023-04-30T04:53:12;10.10;99.90
4520;DHT22;2272;49.226;8.108;2023-04-30T04:55:39;10.10;99.90
4520;DHT22;2272;49.226;8.108;2023-04-30T04:58:05;10.20;99.90
4520;DHT22;2272;49.226;8.108;2023-04-30T05:00:32;10.20;99.90
4520;DHT22;2272;49.226;8.108;2023-04-30T05:03:00;10.20;99.90
4520;DHT22;2272;49.226;8.108;2023-04-30T05:05:26;10.20;99.90
4520;DHT22;2272;49.226;8.108;2023-04-30T05:07:54;10.20;99.90
4520;DHT22;2272;49.226;8.108;2023-04-30T05:10:21;10.20;99.90
4520;DHT22;2272;49.226;8.108;2023-04-30T05:12:48;10.30;99.90
4520;DHT22;2272;49.226;8.108;2023-04-30T05:15:14;10.30;99.90
4520;DHT22;2272;49.226;8.108;2023-04-30T05:17:41;10.40;99.90
4520;DHT22;2272;49.226;8.108;2023-04-30T05:20:10;10.40;99.90
4520;DHT22;2272;49.226;8.108;2023-04-30T05:22:36;10.50;99.90
4520;DHT22;2272;49.226;8.108;2023-04-30T05:25:06;10.60;99.90
4520;DHT22;2272;49.226;8.108;2023-04-30T05:27:32;10.60;99.90
4520;DHT22;2272;49.226;8.108;2023-04-30T05:30:00;10.60;99.90
4520;DHT22;2272;49.226;8.108;2023-04-30T05:32:27;10.70;99.90
4520;DHT22;2272;49.226;8.108;2023-04-30T05:34:53;10.80;99.90
4520;DHT22;2272;49.226;8.108;2023-04-30T05:37:20;10.80;99.90
4520;DHT22;2272;49.226;8.108;2023-04-30T05:39:47;10.90;99.90
4520;DHT22;2272;49.226;8.108;2023-04-30T05:42:15;10.90;99.90
4520;DHT22;2272;49.226;8.108;2023-04-30T05:44:42;10.90;99.90
4520;DHT22;2272;49.226;8.108;2023-04-30T05:47:08;11.00;99.90
4520;DHT22;2272;49.226;8.108;2023-04-30T05:49:35;11.00;99.90
4520;DHT22;2272;49.226;8.108;2023-04-30T05:52:02;11.00;99.90
4520;DHT22;2272;49.226;8.108;2023-04-30T05:54:29;11.10;99.90
4520;DHT22;2272;49.226;8.108;2023-04-30T05:56:55;11.20;99.90
4520;DHT22;2272;49.226;8.108;2023-04-30T05:59:24;11.20;99.90
4520;DHT22;2272;49.226;8.108;2023-04-30T06:01:51;11.30;99.90
4520;DHT22;2272;49.226;8.108;2023-04-30T06:04:17;11.40;99.90
4520;DHT22;2272;49.226;8.108;2023-04-30T06:06:44;11.50;99.90
4520;DHT22;2272;49.226;8.108;2023-04-30T06:09:11;11.60;99.90
4520;DHT22;2272;49.226;8.108;2023-04-30T06:11:37;11.70;99.90
4520;DHT22;2272;49.226;8.108;2023-04-30T06:14:04;11.80;99.90
4520;DHT22;2272;49.226;8.108;2023-04-30T06:16:32;11.90;99.90
4520;DHT22;2272;49.226;8.108;2023-04-30T06:18:59;11.90;99.90
4520;DHT22;2272;49.226;8.108;2023-04-30T06:21:26;12.00;99.90
4520;DHT22;2272;49.226;8.108;2023-04-30T06:23:53;12.00;99.90
4520;DHT22;2272;49.226;8.108;2023-04-30T06:26:19;12.10;99.90
4520;DHT22;2272;49.226;8.108;2023-04-30T06:28:46;12.20;99.90
4520;DHT22;2272;49.226;8.108;2023-04-30T06:31:13;12.30;99.90
4520;DHT22;2272;49.226;8.108;2023-04-30T06:33:41;12.40;99.90
4520;DHT22;2272;49.226;8.108;2023-04-30T06:36:08;12.50;99.90
4520;DHT22;2272;49.226;8.108;2023-04-30T06:38:35;12.50;99.90
4520;DHT22;2272;49.226;8.108;2023-04-30T06:41:01;12.60;99.90
4520;DHT22;2272;49.226;8.108;2023-04-30T06:43:28;12.80;99.90
4520;DHT22;2272;49.226;8.108;2023-04-30T06:46:02;12.90;99.90
4520;DHT22;2272;49.226;8.108;2023-04-30T06:48:29;13.00;99.90
4520;DHT22;2272;49.226;8.108;2023-04-30T06:50:57;13.00;99.90
4520;DHT22;2272;49.226;8.108;2023-04-30T06:53:24;12.90;99.90
4520;DHT22;2272;49.226;8.108;2023-04-30T06:55:51;13.10;99.90
4520;DHT22;2272;49.226;8.108;2023-04-30T06:58:20;13.20;99.90
4520;DHT22;2272;49.226;8.108;2023-04-30T07:00:47;13.30;99.90
4520;DHT22;2272;49.226;8.108;2023-04-30T07:03:14;13.50;99.90
4520;DHT22;2272;49.226;8.108;2023-04-30T07:05:41;13.60;99.90
4520;DHT22;2272;49.226;8.108;2023-04-30T07:08:09;13.70;99.90
4520;DHT22;2272;49.226;8.108;2023-04-30T07:10:36;13.70;99.90
4520;DHT22;2272;49.226;8.108;2023-04-30T07:13:02;13.90;99.90
4520;DHT22;2272;49.226;8.108;2023-04-30T07:15:29;14.00;99.90
4520;DHT22;2272;49.226;8.108;2023-04-30T07:17:56;14.10;99.90
4520;DHT22;2272;49.226;8.108;2023-04-30T07:20:23;14.20;99.90
4520;DHT22;2272;49.226;8.108;2023-04-30T07:22:53;14.50;99.90
4520;DHT22;2272;49.226;8.108;2023-04-30T07:25:25;14.60;99.90
4520;DHT22;2272;49.226;8.108;2023-04-30T07:27:52;14.60;99.90
4520;DHT22;2272;49.226;8.108;2023-04-30T07:30:19;14.70;99.90
4520;DHT22;2272;49.226;8.108;2023-04-30T07:32:46;14.70;99.90
4520;DHT22;2272;49.226;8.108;2023-04-30T07:35:13;14.50;99.90
4520;DHT22;2272;49.226;8.108;2023-04-30T07:37:40;14.30;99.90
4520;DHT22;2272;49.226;8.108;2023-04-30T07:40:09;14.20;99.90
4520;DHT22;2272;49.226;8.108;2023-04-30T07:42:40;14.20;99.90
4520;DHT22;2272;49.226;8.108;2023-04-30T07:45:08;14.20;99.90
4520;DHT22;2272;49.226;8.108;2023-04-30T07:47:38;14.20;99.90
4520;DHT22;2272;49.226;8.108;2023-04-30T07:50:08;14.20;99.90
4520;DHT22;2272;49.226;8.108;2023-04-30T07:52:36;14.40;99.90
4520;DHT22;2272;49.226;8.108;2023-04-30T07:55:03;14.50;99.90
4520;DHT22;2272;49.226;8.108;2023-04-30T07:57:30;14.50;99.90
4520;DHT22;2272;49.226;8.108;2023-04-30T07:59:59;14.70;99.90
4520;DHT22;2272;49.226;8.108;2023-04-30T08:02:25;14.80;99.90
4520;DHT22;2272;49.226;8.108;2023-04-30T08:04:52;15.20;99.90
4520;DHT22;2272;49.226;8.108;2023-04-30T08:07:19;15.50;99.90
4520;DHT22;2272;49.226;8.108;2023-04-30T08:09:46;15.70;99.90
4520;DHT22;2272;49.226;8.108;2023-04-30T08:12:13;15.80;99.90
4520;DHT22;2272;49.226;8.108;2023-04-30T08:14:40;15.90;99.90
4520;DHT22;2272;49.226;8.108;2023-04-30T08:17:08;16.40;99.90
4520;DHT22;2272;49.226;8.108;2023-04-30T08:19:35;16.80;99.90
4520;DHT22;2272;49.226;8.108;2023-04-30T08:22:01;17.00;99.90
4520;DHT22;2272;49.226;8.108;2023-04-30T08:24:28;17.30;99.90
4520;DHT22;2272;49.226;8.108;2023-04-30T08:26:55;17.30;99.90
4520;DHT22;2272;49.226;8.108;2023-04-30T08:29:21;17.20;99.90
4520;DHT22;2272;49.226;8.108;2023-04-30T08:31:48;17.20;99.90
4520;DHT22;2272;49.226;8.108;2023-04-30T08:34:16;17.30;99.90
4520;DHT22;2272;49.226;8.108;2023-04-30T08:36:43;17.40;99.90
4520;DHT22;2272;49.226;8.108;2023-04-30T08:39:12;17.50;99.90
4520;DHT22;2272;49.226;8.108;2023-04-30T08:41:39;17.40;99.90
4520;DHT22;2272;49.226;8.108;2023-04-30T08:44:10;17.40;99.90
4520;DHT22;2272;49.226;8.108;2023-04-30T08:46:37;17.40;99.90
4520;DHT22;2272;49.226;8.108;2023-04-30T08:49:05;17.40;99.90
4520;DHT22;2272;49.226;8.108;2023-04-30T08:51:34;17.60;99.90
4520;DHT22;2272;49.226;8.108;2023-04-30T08:54:01;17.60;99.90
4520;DHT22;2272;49.226;8.108;2023-04-30T08:56:27;17.60;99.90
4520;DHT22;2272;49.226;8.108;2023-04-30T08:58:55;17.80;99.90
4520;DHT22;2272;49.226;8.108;2023-04-30T09:01:22;17.80;99.90
4520;DHT22;2272;49.226;8.108;2023-04-30T09:03:50;17.80;99.90
4520;DHT22;2272;49.226;8.108;2023-04-30T09:06:17;17.90;99.90
4520;DHT22;2272;49.226;8.108;2023-04-30T09:08:46;18.00;99.90
4520;DHT22;2272;49.226;8.108;2023-04-30T09:11:23;18.20;99.90
4520;DHT22;2272;49.226;8.108;2023-04-30T09:13:51;18.40;99.90
4520;DHT22;2272;49.226;8.108;2023-04-30T09:16:19;18.70;99.90
4520;DHT22;2272;49.226;8.108;2023-04-30T09:18:47;19.10;99.90
4520;DHT22;2272;49.226;8.108;2023-04-30T09:21:14;19.50;99.90
4520;DHT22;2272;49.226;8.108;2023-04-30T09:23:55;19.40;99.90
4520;DHT22;2272;49.226;8.108;2023-04-30T09:26:26;19.20;99.90
4520;DHT22;2272;49.226;8.108;2023-04-30T09:28:54;18.80;99.90
4520;DHT22;2272;49.226;8.108;2023-04-30T09:31:22;18.60;99.90
4520;DHT22;2272;49.226;8.108;2023-04-30T09:33:49;18.70;99.90
4520;DHT22;2272;49.226;8.108;2023-04-30T09:36:16;18.60;99.90
4520;DHT22;2272;49.226;8.108;2023-04-30T09:38:43;18.10;99.90
4520;DHT22;2272;49.226;8.108;2023-04-30T09:41:24;17.80;99.90
4520;DHT22;2272;49.226;8.108;2023-04-30T09:44:05;17.90;99.90
4520;DHT22;2272;49.226;8.108;2023-04-30T09:47:01;17.90;99.90
4520;DHT22;2272;49.226;8.108;2023-04-30T09:49:42;18.30;99.90
4520;DHT22;2272;49.226;8.108;2023-04-30T09:52:10;18.50;99.90
4520;DHT22;2272;49.226;8.108;2023-04-30T09:54:37;18.30;99.90
4520;DHT22;2272;49.226;8.108;2023-04-30T09:57:09;18.00;99.80
4520;DHT22;2272;49.226;8.108;2023-04-30T09:59:37;17.80;99.90
4520;DHT22;2272;49.226;8.108;2023-04-30T10:02:06;17.70;99.90
4520;DHT22;2272;49.226;8.108;2023-04-30T10:04:34;18.10;99.90
4520;DHT22;2272;49.226;8.108;2023-04-30T10:07:05;18.30;99.90
4520;DHT22;2272;49.226;8.108;2023-04-30T10:09:38;18.30;99.90
4520;DHT22;2272;49.226;8.108;2023-04-30T10:12:12;18.50;99.90
4520;DHT22;2272;49.226;8.108;2023-04-30T10:14:48;19.10;99.90
4520;DHT22;2272;49.226;8.108;2023-04-30T10:17:19;19.60;99.80
4520;DHT22;2272;49.226;8.108;2023-04-30T10:19:51;19.50;98.30
4520;DHT22;2272;49.226;8.108;2023-04-30T10:22:23;19.40;98.50
4520;DHT22;2272;49.226;8.108;2023-04-30T10:24:51;19.20;98.70
4520;DHT22;2272;49.226;8.108;2023-04-30T10:27:19;19.10;98.80
4520;DHT22;2272;49.226;8.108;2023-04-30T10:29:47;18.70;99.00
4520;DHT22;2272;49.226;8.108;2023-04-30T10:32:15;18.60;99.50
4520;DHT22;2272;49.226;8.108;2023-04-30T10:34:51;18.60;99.60
4520;DHT22;2272;49.226;8.108;2023-04-30T10:37:30;18.70;99.40
4520;DHT22;2272;49.226;8.108;2023-04-30T10:39:58;18.70;98.60
4520;DHT22;2272;49.226;8.108;2023-04-30T10:42:28;18.80;99.10
4520;DHT22;2272;49.226;8.108;2023-04-30T10:44:55;19.30;98.60
4520;DHT22;2272;49.226;8.108;2023-04-30T10:47:27;19.70;98.00
4520;DHT22;2272;49.226;8.108;2023-04-30T10:50:01;19.90;97.60
4520;DHT22;2272;49.226;8.108;2023-04-30T10:52:28;19.80;96.40
4520;DHT22;2272;49.226;8.108;2023-04-30T10:54:59;19.80;96.30
4520;DHT22;2272;49.226;8.108;2023-04-30T10:57:31;19.80;97.00
4520;DHT22;2272;49.226;8.108;2023-04-30T11:00:19;19.90;97.20
4520;DHT22;2272;49.226;8.108;2023-04-30T11:02:46;20.10;97.10
4520;DHT22;2272;49.226;8.108;2023-04-30T11:05:15;20.30;97.60
4520;DHT22;2272;49.226;8.108;2023-04-30T11:07:49;20.40;96.50
4520;DHT22;2272;49.226;8.108;2023-04-30T11:10:20;20.40;95.50
4520;DHT22;2272;49.226;8.108;2023-04-30T11:12:49;20.30;96.50
4520;DHT22;2272;49.226;8.108;2023-04-30T11:15:17;20.30;95.70
4520;DHT22;2272;49.226;8.108;2023-04-30T11:17:44;20.30;95.50
4520;DHT22;2272;49.226;8.108;2023-04-30T11:20:12;20.30;95.70
4520;DHT22;2272;49.226;8.108;2023-04-30T11:22:39;20.40;95.50
4520;DHT22;2272;49.226;8.108;2023-04-30T11:25:08;20.40;95.40
4520;DHT22;2272;49.226;8.108;2023-04-30T11:27:36;20.50;96.30
4520;DHT22;2272;49.226;8.108;2023-04-30T11:30:10;20.70;95.20
4520;DHT22;2272;49.226;8.108;2023-04-30T11:32:38;20.90;94.80
4520;DHT22;2272;49.226;8.108;2023-04-30T11:35:06;21.00;94.20
4520;DHT22;2272;49.226;8.108;2023-04-30T11:37:35;21.00;94.80
4520;DHT22;2272;49.226;8.108;2023-04-30T11:40:03;21.00;95.10
4520;DHT22;2272;49.226;8.108;2023-04-30T11:42:32;20.90;94.50
4520;DHT22;2272;49.226;8.108;2023-04-30T11:45:06;20.70;94.20
4520;DHT22;2272;49.226;8.108;2023-04-30T11:47:40;20.70;95.40
4520;DHT22;2272;49.226;8.108;2023-04-30T11:50:08;20.90;94.70
4520;DHT22;2272;49.226;8.108;2023-04-30T11:52:36;21.10;94.30
4520;DHT22;2272;49.226;8.108;2023-04-30T11:55:11;21.30;93.90
4520;DHT22;2272;49.226;8.108;2023-04-30T11:57:40;21.20;93.70
4520;DHT22;2272;49.226;8.108;2023-04-30T12:00:13;21.10;93.60
4520;DHT22;2272;49.226;8.108;2023-04-30T12:02:41;21.20;94.60
4520;DHT22;2272;49.226;8.108;2023-04-30T12:05:15;21.10;94.00
4520;DHT22;2272;49.226;8.108;2023-04-30T12:07:49;21.10;94.60
4520;DHT22;2272;49.226;8.108;2023-04-30T12:10:18;21.20;95.20
4520;DHT22;2272;49.226;8.108;2023-04-30T12:12:46;21.20;93.40
4520;DHT22;2272;49.226;8.108;2023-04-30T12:15:16;21.20;94.20
4520;DHT22;2272;49.226;8.108;2023-04-30T12:17:44;21.30;92.70
4520;DHT22;2272;49.226;8.108;2023-04-30T12:20:12;21.40;93.40
4520;DHT22;2272;49.226;8.108;2023-04-30T12:22:39;21.80;96.20
4520;DHT22;2272;49.226;8.108;2023-04-30T12:25:08;22.10;93.30
4520;DHT22;2272;49.226;8.108;2023-04-30T12:27:36;22.40;93.00
4520;DHT22;2272;49.226;8.108;2023-04-30T12:30:05;22.50;92.50
4520;DHT22;2272;49.226;8.108;2023-04-30T12:32:38;22.30;90.90
4520;DHT22;2272;49.226;8.108;2023-04-30T12:35:06;22.30;92.80
4520;DHT22;2272;49.226;8.108;2023-04-30T12:37:33;22.50;91.70
4520;DHT22;2272;49.226;8.108;2023-04-30T12:40:00;22.80;91.70
4520;DHT22;2272;49.226;8.108;2023-04-30T12:42:30;22.80;91.80
4520;DHT22;2272;49.226;8.108;2023-04-30T12:45:01;22.80;90.90
4520;DHT22;2272;49.226;8.108;2023-04-30T12:47:28;22.70;91.30
4520;DHT22;2272;49.226;8.108;2023-04-30T12:49:57;22.50;90.70
4520;DHT22;2272;49.226;8.108;2023-04-30T12:52:25;22.20;90.80
4520;DHT22;2272;49.226;8.108;2023-04-30T12:54:52;22.00;91.90
4520;DHT22;2272;49.226;8.108;2023-04-30T12:57:20;22.20;91.30
4520;DHT22;2272;49.226;8.108;2023-04-30T12:59:57;22.20;91.40
4520;DHT22;2272;49.226;8.108;2023-04-30T13:02:26;22.30;90.80
4520;DHT22;2272;49.226;8.108;2023-04-30T13:04:54;22.30;90.60
4520;DHT22;2272;49.226;8.108;2023-04-30T13:07:22;22.30;91.00
4520;DHT22;2272;49.226;8.108;2023-04-30T13:09:50;22.50;90.30
4520;DHT22;2272;49.226;8.108;2023-04-30T13:12:17;22.60;90.60
4520;DHT22;2272;49.226;8.108;2023-04-30T13:14:46;22.70;90.60
4520;DHT22;2272;49.226;8.108;2023-04-30T13:17:25;22.60;91.80
4520;DHT22;2272;49.226;8.108;2023-04-30T13:19:53;22.30;90.80
4520;DHT22;2272;49.226;8.108;2023-04-30T13:22:23;21.80;89.90
4520;DHT22;2272;49.226;8.108;2023-04-30T13:24:53;21.40;89.20
4520;DHT22;2272;49.226;8.108;2023-04-30T13:27:20;21.10;91.40
4520;DHT22;2272;49.226;8.108;2023-04-30T13:29:47;21.20;91.70
4520;DHT22;2272;49.226;8.108;2023-04-30T13:32:13;21.30;91.40
4520;DHT22;2272;49.226;8.108;2023-04-30T13:34:41;21.50;90.40
4520;DHT22;2272;49.226;8.108;2023-04-30T13:37:09;21.40;90.10
4520;DHT22;2272;49.226;8.108;2023-04-30T13:39:37;21.20;90.10
4520;DHT22;2272;49.226;8.108;2023-04-30T13:42:04;21.00;90.20
4520;DHT22;2272;49.226;8.108;2023-04-30T13:44:31;20.90;89.90
4520;DHT22;2272;49.226;8.108;2023-04-30T13:46:58;21.10;90.30
4520;DHT22;2272;49.226;8.108;2023-04-30T13:49:24;21.30;90.50
4520;DHT22;2272;49.226;8.108;2023-04-30T13:51:51;21.40;91.00
4520;DHT22;2272;49.226;8.108;2023-04-30T13:54:18;21.50;90.30
4520;DHT22;2272;49.226;8.108;2023-04-30T13:56:46;21.20;90.60
4520;DHT22;2272;49.226;8.108;2023-04-30T13:59:14;20.90;90.90
4520;DHT22;2272;49.226;8.108;2023-04-30T14:01:40;20.70;91.70
4520;DHT22;2272;49.226;8.108;2023-04-30T14:04:07;20.70;91.90
4520;DHT22;2272;49.226;8.108;2023-04-30T14:06:34;20.90;92.20
4520;DHT22;2272;49.226;8.108;2023-04-30T14:09:01;21.10;91.70
4520;DHT22;2272;49.226;8.108;2023-04-30T14:11:27;21.20;90.20
4520;DHT22;2272;49.226;8.108;2023-04-30T14:13:55;21.10;90.70
4520;DHT22;2272;49.226;8.108;2023-04-30T14:16:22;21.10;90.90
4520;DHT22;2272;49.226;8.108;2023-04-30T14:18:49;21.00;91.40
4520;DHT22;2272;49.226;8.108;2023-04-30T14:21:16;21.10;91.70
4520;DHT22;2272;49.226;8.108;2023-04-30T14:23:43;21.10;90.30
4520;DHT22;2272;49.226;8.108;2023-04-30T14:26:11;20.90;90.00
4520;DHT22;2272;49.226;8.108;2023-04-30T14:28:38;20.90;91.00
4520;DHT22;2272;49.226;8.108;2023-04-30T14:31:06;21.20;91.80
4520;DHT22;2272;49.226;8.108;2023-04-30T14:33:33;21.60;91.20
4520;DHT22;2272;49.226;8.108;2023-04-30T14:36:00;21.80;90.10
4520;DHT22;2272;49.226;8.108;2023-04-30T14:38:27;21.70;90.20
4520;DHT22;2272;49.226;8.108;2023-04-30T14:40:54;21.60;91.20
4520;DHT22;2272;49.226;8.108;2023-04-30T14:43:20;21.50;90.40
4520;DHT22;2272;49.226;8.108;2023-04-30T14:45:48;21.50;90.00
4520;DHT22;2272;49.226;8.108;2023-04-30T14:48:16;21.50;89.20
4520;DHT22;2272;49.226;8.108;2023-04-30T14:50:43;21.50;88.60
4520;DHT22;2272;49.226;8.108;2023-04-30T14:53:11;21.50;87.10
4520;DHT22;2272;49.226;8.108;2023-04-30T14:55:38;21.40;87.90
4520;DHT22;2272;49.226;8.108;2023-04-30T14:58:05;21.50;87.90
4520;DHT22;2272;49.226;8.108;2023-04-30T15:00:48;21.50;89.50
4520;DHT22;2272;49.226;8.108;2023-04-30T15:03:16;21.50;87.80
4520;DHT22;2272;49.226;8.108;2023-04-30T15:05:43;21.50;87.60
4520;DHT22;2272;49.226;8.108;2023-04-30T15:08:09;21.60;89.20
4520;DHT22;2272;49.226;8.108;2023-04-30T15:10:36;21.50;88.40
4520;DHT22;2272;49.226;8.108;2023-04-30T15:13:03;21.40;87.80
4520;DHT22;2272;49.226;8.108;2023-04-30T15:15:30;21.20;88.40
4520;DHT22;2272;49.226;8.108;2023-04-30T15:17:59;20.90;87.90
4520;DHT22;2272;49.226;8.108;2023-04-30T15:20:27;20.80;89.20
4520;DHT22;2272;49.226;8.108;2023-04-30T15:22:53;20.60;90.40
4520;DHT22;2272;49.226;8.108;2023-04-30T15:25:20;20.60;90.00
4520;DHT22;2272;49.226;8.108;2023-04-30T15:27:48;20.50;90.30
4520;DHT22;2272;49.226;8.108;2023-04-30T15:30:16;20.40;90.20
4520;DHT22;2272;49.226;8.108;2023-04-30T15:32:42;20.40;89.50
4520;DHT22;2272;49.226;8.108;2023-04-30T15:35:09;20.40;90.10
4520;DHT22;2272;49.226;8.108;2023-04-30T15:37:37;20.40;88.50
4520;DHT22;2272;49.226;8.108;2023-04-30T15:40:05;20.30;89.70
4520;DHT22;2272;49.226;8.108;2023-04-30T15:42:32;20.30;89.10
4520;DHT22;2272;49.226;8.108;2023-04-30T15:44:59;20.30;90.60
4520;DHT22;2272;49.226;8.108;2023-04-30T15:47:26;20.40;90.70
4520;DHT22;2272;49.226;8.108;2023-04-30T15:49:52;20.50;90.00
4520;DHT22;2272;49.226;8.108;2023-04-30T15:52:19;20.30;89.30
4520;DHT22;2272;49.226;8.108;2023-04-30T15:54:47;20.20;90.80
4520;DHT22;2272;49.226;8.108;2023-04-30T15:57:14;20.20;91.10
4520;DHT22;2272;49.226;8.108;2023-04-30T15:59:41;20.20;90.80
4520;DHT22;2272;49.226;8.108;2023-04-30T16:02:07;20.30;91.00
4520;DHT22;2272;49.226;8.108;2023-04-30T16:04:34;20.30;90.90
4520;DHT22;2272;49.226;8.108;2023-04-30T16:07:01;20.30;90.10
4520;DHT22;2272;49.226;8.108;2023-04-30T16:09:28;20.30;90.40
4520;DHT22;2272;49.226;8.108;2023-04-30T16:11:58;20.30;89.70